sensor_id;sensor_type;location;lat;lon;timestamp;P1;durP1;ratioP1;P2;durP2;ratioP2
14789;SDS011;7486;51.010;10.366;2022-12-18T00:01:43;31.27;;;15.23;;
14789;SDS011;7486;51.010;10.366;2022-12-18T00:04:21;50.97;;;26.70;;
14789;SDS011;7486;51.010;10.366;2022-12-18T00:06:49;46.83;;;21.30;;
14789;SDS011;7486;51.010;10.366;2022-12-18T00:09:22;46.50;;;22.63;;
14789;SDS011;7486;51.010;10.366;2022-12-18T00:14:12;24.87;;;12.60;;
14789;SDS011;7486;51.010;10.366;2022-12-18T00:17:14;25.20;;;11.53;;
14789;SDS011;7486;51.010;10.366;2022-12-18T00:19:49;24.10;;;11.30;;
14789;SDS011;7486;51.010;10.366;2022-12-18T00:23:08;24.60;;;11.50;;
14789;SDS011;7486;51.010;10.366;2022-12-18T00:25:35;25.80;;;12.27;;
14789;SDS011;7486;51.010;10.366;2022-12-18T00:28:30;29.40;;;11.73;;
14789;SDS011;7486;51.010;10.366;2022-12-18T00:31:17;28.67;;;11.10;;
14789;SDS011;7486;51.010;10.366;2022-12-18T00:34:05;28.33;;;11.90;;
14789;SDS011;7486;51.010;10.366;2022-12-18T00:37:12;25.47;;;12.23;;
14789;SDS011;7486;51.010;10.366;2022-12-18T00:40:24;30.90;;;13.07;;
14789;SDS011;7486;51.010;10.366;2022-12-18T00:42:52;22.20;;;10.97;;
14789;SDS011;7486;51.010;10.366;2022-12-18T00:45:19;24.47;;;12.50;;
14789;SDS011;7486;51.010;10.366;2022-12-18T00:47:50;33.67;;;13.37;;
14789;SDS011;7486;51.010;10.366;2022-12-18T00:50:58;29.23;;;12.43;;
14789;SDS011;7486;51.010;10.366;2022-12-18T00:54:26;31.53;;;13.57;;
14789;SDS011;7486;51.010;10.366;2022-12-18T00:57:57;26.80;;;12.10;;
14789;SDS011;7486;51.010;10.366;2022-12-18T01:00:52;32.93;;;11.63;;
14789;SDS011;7486;51.010;10.366;2022-12-18T01:04:01;27.07;;;11.70;;
14789;SDS011;7486;51.010;10.366;2022-12-18T01:06:57;29.23;;;12.77;;
14789;SDS011;7486;51.010;10.366;2022-12-18T01:10:33;26.17;;;12.90;;
14789;SDS011;7486;51.010;10.366;2022-12-18T01:13:14;23.50;;;12.17;;
14789;SDS011;7486;51.010;10.366;2022-12-18T01:15:47;24.30;;;13.00;;
14789;SDS011;7486;51.010;10.366;2022-12-18T01:18:20;31.23;;;13.70;;
14789;SDS011;7486;51.010;10.366;2022-12-18T01:20:50;31.07;;;12.40;;
14789;SDS011;7486;51.010;10.366;2022-12-18T01:23:20;51.83;;;13.80;;
14789;SDS011;7486;51.010;10.366;2022-12-18T01:25:47;32.60;;;14.10;;
14789;SDS011;7486;51.010;10.366;2022-12-18T01:28:14;28.00;;;12.73;;
14789;SDS011;7486;51.010;10.366;2022-12-18T01:30:40;29.43;;;13.30;;
14789;SDS011;7486;51.010;10.366;2022-12-18T01:33:07;28.03;;;12.60;;
14789;SDS011;7486;51.010;10.366;2022-12-18T01:35:41;32.13;;;13.07;;
14789;SDS011;7486;51.010;10.366;2022-12-18T01:38:08;27.03;;;12.13;;
14789;SDS011;7486;51.010;10.366;2022-12-18T01:40:35;23.90;;;12.37;;
14789;SDS011;7486;51.010;10.366;2022-12-18T01:43:02;29.40;;;12.57;;
14789;SDS011;7486;51.010;10.366;2022-12-18T01:45:30;29.33;;;12.70;;
14789;SDS011;7486;51.010;10.366;2022-12-18T01:48:02;25.70;;;12.07;;
14789;SDS011;7486;51.010;10.366;2022-12-18T01:50:34;26.93;;;12.30;;
14789;SDS011;7486;51.010;10.366;2022-12-18T01:53:13;25.23;;;11.43;;
14789;SDS011;7486;51.010;10.366;2022-12-18T01:55:45;30.17;;;12.47;;
14789;SDS011;7486;51.010;10.366;2022-12-18T01:58:17;23.20;;;11.33;;
14789;SDS011;7486;51.010;10.366;2022-12-18T02:00:45;44.30;;;13.37;;
14789;SDS011;7486;51.010;10.366;2022-12-18T02:03:13;33.53;;;12.40;;
14789;SDS011;7486;51.010;10.366;2022-12-18T02:08:33;26.00;;;12.03;;
14789;SDS011;7486;51.010;10.366;2022-12-18T02:16:51;24.53;;;11.17;;
14789;SDS011;7486;51.010;10.366;2022-12-18T02:27:48;25.50;;;11.93;;
14789;SDS011;7486;51.010;10.366;2022-12-18T02:30:20;24.53;;;11.50;;
14789;SDS011;7486;51.010;10.366;2022-12-18T02:32:51;25.17;;;11.57;;
14789;SDS011;7486;51.010;10.366;2022-12-18T02:35:20;24.90;;;11.43;;
14789;SDS011;7486;51.010;10.366;2022-12-18T02:37:53;23.57;;;11.27;;
14789;SDS011;7486;51.010;10.366;2022-12-18T02:40:20;23.00;;;11.90;;
14789;SDS011;7486;51.010;10.366;2022-12-18T02:42:50;23.90;;;12.17;;
14789;SDS011;7486;51.010;10.366;2022-12-18T02:45:18;25.83;;;12.60;;
14789;SDS011;7486;51.010;10.366;2022-12-18T02:47:49;29.30;;;13.93;;
14789;SDS011;7486;51.010;10.366;2022-12-18T02:50:26;30.40;;;13.57;;
14789;SDS011;7486;51.010;10.366;2022-12-18T02:58:41;29.03;;;13.17;;
14789;SDS011;7486;51.010;10.366;2022-12-18T03:01:24;32.20;;;14.87;;
14789;SDS011;7486;51.010;10.366;2022-12-18T03:07:08;30.13;;;13.97;;
14789;SDS011;7486;51.010;10.366;2022-12-18T03:09:40;31.43;;;14.60;;
14789;SDS011;7486;51.010;10.366;2022-12-18T03:14:42;30.30;;;14.10;;
14789;SDS011;7486;51.010;10.366;2022-12-18T03:17:13;37.03;;;15.03;;
14789;SDS011;7486;51.010;10.366;2022-12-18T03:19:45;28.60;;;13.57;;
14789;SDS011;7486;51.010;10.366;2022-12-18T03:22:14;28.63;;;13.57;;
14789;SDS011;7486;51.010;10.366;2022-12-18T03:24:47;29.63;;;14.07;;
14789;SDS011;7486;51.010;10.366;2022-12-18T03:27:17;29.87;;;14.87;;
14789;SDS011;7486;51.010;10.366;2022-12-18T03:29:49;30.67;;;15.43;;
14789;SDS011;7486;51.010;10.366;2022-12-18T03:32:31;31.53;;;14.67;;
14789;SDS011;7486;51.010;10.366;2022-12-18T03:35:05;31.70;;;14.83;;
14789;SDS011;7486;51.010;10.366;2022-12-18T03:37:36;30.17;;;13.33;;
14789;SDS011;7486;51.010;10.366;2022-12-18T03:40:04;48.10;;;13.17;;
14789;SDS011;7486;51.010;10.366;2022-12-18T03:45:23;29.00;;;13.33;;
14789;SDS011;7486;51.010;10.366;2022-12-18T03:47:58;30.03;;;14.00;;
14789;SDS011;7486;51.010;10.366;2022-12-18T03:50:44;32.60;;;14.73;;
14789;SDS011;7486;51.010;10.366;2022-12-18T03:53:22;31.87;;;14.93;;
14789;SDS011;7486;51.010;10.366;2022-12-18T03:56:01;34.57;;;13.87;;
14789;SDS011;7486;51.010;10.366;2022-12-18T03:58:35;29.20;;;13.70;;
14789;SDS011;7486;51.010;10.366;2022-12-18T04:01:16;25.87;;;12.80;;
14789;SDS011;7486;51.010;10.366;2022-12-18T04:03:46;25.37;;;13.33;;
14789;SDS011;7486;51.010;10.366;2022-12-18T04:06:17;24.53;;;11.97;;
14789;SDS011;7486;51.010;10.366;2022-12-18T04:08:45;26.63;;;12.63;;
14789;SDS011;7486;51.010;10.366;2022-12-18T04:11:16;32.07;;;13.20;;
14789;SDS011;7486;51.010;10.366;2022-12-18T04:13:44;28.93;;;13.60;;
14789;SDS011;7486;51.010;10.366;2022-12-18T04:16:29;31.80;;;13.77;;
14789;SDS011;7486;51.010;10.366;2022-12-18T04:19:00;33.60;;;14.57;;
14789;SDS011;7486;51.010;10.366;2022-12-18T04:21:30;28.73;;;13.57;;
14789;SDS011;7486;51.010;10.366;2022-12-18T04:23:57;33.17;;;13.23;;
14789;SDS011;7486;51.010;10.366;2022-12-18T04:26:24;55.73;;;14.40;;
14789;SDS011;7486;51.010;10.366;2022-12-18T04:29:10;27.80;;;12.23;;
14789;SDS011;7486;51.010;10.366;2022-12-18T04:31:37;22.33;;;11.93;;
14789;SDS011;7486;51.010;10.366;2022-12-18T04:34:04;27.87;;;11.90;;
14789;SDS011;7486;51.010;10.366;2022-12-18T04:36:37;24.87;;;11.80;;
14789;SDS011;7486;51.010;10.366;2022-12-18T04:39:04;28.53;;;12.63;;
14789;SDS011;7486;51.010;10.366;2022-12-18T04:41:31;25.50;;;11.03;;
14789;SDS011;7486;51.010;10.366;2022-12-18T04:43:57;25.63;;;11.20;;
14789;SDS011;7486;51.010;10.366;2022-12-18T04:46:24;49.07;;;12.90;;
14789;SDS011;7486;51.010;10.366;2022-12-18T04:48:51;55.80;;;12.10;;
14789;SDS011;7486;51.010;10.366;2022-12-18T04:51:17;27.70;;;11.73;;
14789;SDS011;7486;51.010;10.366;2022-12-18T04:53:52;27.67;;;10.87;;
14789;SDS011;7486;51.010;10.366;2022-12-18T04:56:19;42.27;;;12.13;;
14789;SDS011;7486;51.010;10.366;2022-12-18T04:58:46;27.77;;;10.40;;
14789;SDS011;7486;51.010;10.366;2022-12-18T05:01:14;24.90;;;10.27;;
14789;SDS011;7486;51.010;10.366;2022-12-18T05:03:42;20.77;;;10.20;;
14789;SDS011;7486;51.010;10.366;2022-12-18T05:06:10;31.83;;;10.53;;
14789;SDS011;7486;51.010;10.366;2022-12-18T05:08:37;33.73;;;11.20;;
14789;SDS011;7486;51.010;10.366;2022-12-18T05:11:08;27.13;;;11.20;;
14789;SDS011;7486;51.010;10.366;2022-12-18T05:13:37;23.27;;;10.10;;
14789;SDS011;7486;51.010;10.366;2022-12-18T05:16:05;20.67;;;10.60;;
14789;SDS011;7486;51.010;10.366;2022-12-18T05:18:46;20.37;;;9.93;;
14789;SDS011;7486;51.010;10.366;2022-12-18T05:21:13;21.40;;;10.93;;
14789;SDS011;7486;51.010;10.366;2022-12-18T05:23:40;23.10;;;10.60;;
14789;SDS011;7486;51.010;10.366;2022-12-18T05:27:56;21.43;;;9.47;;
14789;SDS011;7486;51.010;10.366;2022-12-18T05:30:23;20.83;;;10.40;;
14789;SDS011;7486;51.010;10.366;2022-12-18T05:32:50;19.40;;;9.77;;
14789;SDS011;7486;51.010;10.366;2022-12-18T05:35:17;21.80;;;10.40;;
14789;SDS011;7486;51.010;10.366;2022-12-18T05:37:43;19.77;;;9.63;;
14789;SDS011;7486;51.010;10.366;2022-12-18T05:40:11;20.90;;;10.47;;
14789;SDS011;7486;51.010;10.366;2022-12-18T05:42:38;19.93;;;10.37;;
14789;SDS011;7486;51.010;10.366;2022-12-18T05:45:05;21.80;;;10.87;;
14789;SDS011;7486;51.010;10.366;2022-12-18T05:47:32;26.37;;;11.50;;
14789;SDS011;7486;51.010;10.366;2022-12-18T05:49:59;22.00;;;10.87;;
14789;SDS011;7486;51.010;10.366;2022-12-18T05:52:26;22.50;;;10.83;;
14789;SDS011;7486;51.010;10.366;2022-12-18T05:54:54;21.80;;;10.77;;
14789;SDS011;7486;51.010;10.366;2022-12-18T05:57:20;16.53;;;9.07;;
14789;SDS011;7486;51.010;10.366;2022-12-18T05:59:47;17.83;;;9.53;;
14789;SDS011;7486;51.010;10.366;2022-12-18T06:02:14;19.37;;;9.30;;
14789;SDS011;7486;51.010;10.366;2022-12-18T06:04:41;19.50;;;9.50;;
14789;SDS011;7486;51.010;10.366;2022-12-18T06:07:08;19.50;;;9.73;;
14789;SDS011;7486;51.010;10.366;2022-12-18T06:09:35;17.97;;;9.67;;
14789;SDS011;7486;51.010;10.366;2022-12-18T06:12:01;17.20;;;9.07;;
14789;SDS011;7486;51.010;10.366;2022-12-18T06:14:28;21.17;;;9.90;;
14789;SDS011;7486;51.010;10.366;2022-12-18T06:16:55;19.03;;;9.60;;
14789;SDS011;7486;51.010;10.366;2022-12-18T06:19:22;21.70;;;10.17;;
14789;SDS011;7486;51.010;10.366;2022-12-18T06:21:49;16.40;;;9.23;;
14789;SDS011;7486;51.010;10.366;2022-12-18T06:24:16;18.93;;;9.57;;
14789;SDS011;7486;51.010;10.366;2022-12-18T06:26:43;15.90;;;9.23;;
14789;SDS011;7486;51.010;10.366;2022-12-18T06:29:10;17.03;;;9.27;;
14789;SDS011;7486;51.010;10.366;2022-12-18T06:31:38;17.43;;;9.80;;
14789;SDS011;7486;51.010;10.366;2022-12-18T06:34:05;15.87;;;9.03;;
14789;SDS011;7486;51.010;10.366;2022-12-18T06:36:31;16.30;;;9.17;;
14789;SDS011;7486;51.010;10.366;2022-12-18T06:38:58;17.20;;;8.90;;
14789;SDS011;7486;51.010;10.366;2022-12-18T06:41:26;20.00;;;9.63;;
14789;SDS011;7486;51.010;10.366;2022-12-18T06:43:52;18.10;;;9.77;;
14789;SDS011;7486;51.010;10.366;2022-12-18T06:46:25;20.60;;;9.73;;
14789;SDS011;7486;51.010;10.366;2022-12-18T06:48:52;20.27;;;9.90;;
14789;SDS011;7486;51.010;10.366;2022-12-18T06:51:19;21.13;;;10.30;;
14789;SDS011;7486;51.010;10.366;2022-12-18T06:53:49;18.50;;;9.40;;
14789;SDS011;7486;51.010;10.366;2022-12-18T06:56:16;18.07;;;9.23;;
14789;SDS011;7486;51.010;10.366;2022-12-18T06:58:43;21.50;;;10.50;;
14789;SDS011;7486;51.010;10.366;2022-12-18T07:01:10;18.60;;;9.97;;
14789;SDS011;7486;51.010;10.366;2022-12-18T07:03:38;19.60;;;10.10;;
14789;SDS011;7486;51.010;10.366;2022-12-18T07:06:12;20.10;;;9.93;;
14789;SDS011;7486;51.010;10.366;2022-12-18T07:08:40;25.80;;;11.20;;
14789;SDS011;7486;51.010;10.366;2022-12-18T07:11:07;22.17;;;10.27;;
14789;SDS011;7486;51.010;10.366;2022-12-18T07:13:34;21.70;;;9.90;;
14789;SDS011;7486;51.010;10.366;2022-12-18T07:16:20;22.33;;;10.47;;
14789;SDS011;7486;51.010;10.366;2022-12-18T07:18:51;21.27;;;10.00;;
14789;SDS011;7486;51.010;10.366;2022-12-18T07:21:20;23.03;;;10.67;;
14789;SDS011;7486;51.010;10.366;2022-12-18T07:23:47;21.13;;;9.67;;
14789;SDS011;7486;51.010;10.366;2022-12-18T07:26:15;21.67;;;9.53;;
14789;SDS011;7486;51.010;10.366;2022-12-18T07:28:44;16.10;;;9.37;;
14789;SDS011;7486;51.010;10.366;2022-12-18T07:31:11;19.53;;;9.63;;
14789;SDS011;7486;51.010;10.366;2022-12-18T07:33:40;19.60;;;9.97;;
14789;SDS011;7486;51.010;10.366;2022-12-18T07:36:08;19.63;;;9.37;;
14789;SDS011;7486;51.010;10.366;2022-12-18T07:38:36;17.97;;;8.97;;
14789;SDS011;7486;51.010;10.366;2022-12-18T07:41:07;17.33;;;9.20;;
14789;SDS011;7486;51.010;10.366;2022-12-18T07:43:37;15.03;;;8.47;;
14789;SDS011;7486;51.010;10.366;2022-12-18T07:46:05;20.03;;;10.13;;
14789;SDS011;7486;51.010;10.366;2022-12-18T07:48:34;18.90;;;9.90;;
14789;SDS011;7486;51.010;10.366;2022-12-18T07:51:01;19.73;;;10.30;;
14789;SDS011;7486;51.010;10.366;2022-12-18T07:53:30;20.63;;;10.57;;
14789;SDS011;7486;51.010;10.366;2022-12-18T07:56:08;18.77;;;10.07;;
14789;SDS011;7486;51.010;10.366;2022-12-18T07:58:56;19.07;;;10.10;;
14789;SDS011;7486;51.010;10.366;2022-12-18T08:01:30;20.93;;;9.97;;
14789;SDS011;7486;51.010;10.366;2022-12-18T08:03:58;22.30;;;10.90;;
14789;SDS011;7486;51.010;10.366;2022-12-18T08:06:24;19.60;;;10.60;;
14789;SDS011;7486;51.010;10.366;2022-12-18T08:08:52;20.43;;;10.40;;
14789;SDS011;7486;51.010;10.366;2022-12-18T08:11:20;19.87;;;10.03;;
14789;SDS011;7486;51.010;10.366;2022-12-18T08:13:47;23.17;;;11.10;;
14789;SDS011;7486;51.010;10.366;2022-12-18T08:16:15;19.23;;;10.87;;
14789;SDS011;7486;51.010;10.366;2022-12-18T08:18:42;20.40;;;10.53;;
14789;SDS011;7486;51.010;10.366;2022-12-18T08:21:09;20.07;;;10.40;;
14789;SDS011;7486;51.010;10.366;2022-12-18T08:23:37;19.73;;;9.37;;
14789;SDS011;7486;51.010;10.366;2022-12-18T08:26:09;19.63;;;10.40;;
14789;SDS011;7486;51.010;10.366;2022-12-18T08:28:37;22.83;;;11.03;;
14789;SDS011;7486;51.010;10.366;2022-12-18T08:31:04;20.43;;;10.13;;
14789;SDS011;7486;51.010;10.366;2022-12-18T08:33:31;22.37;;;10.83;;
14789;SDS011;7486;51.010;10.366;2022-12-18T08:35:59;20.63;;;10.37;;
14789;SDS011;7486;51.010;10.366;2022-12-18T08:38:27;20.23;;;10.73;;
14789;SDS011;7486;51.010;10.366;2022-12-18T08:40:58;19.70;;;11.07;;
14789;SDS011;7486;51.010;10.366;2022-12-18T08:43:29;21.97;;;11.10;;
14789;SDS011;7486;51.010;10.366;2022-12-18T08:45:55;23.37;;;11.00;;
14789;SDS011;7486;51.010;10.366;2022-12-18T08:48:23;21.10;;;11.00;;
14789;SDS011;7486;51.010;10.366;2022-12-18T08:50:57;20.03;;;10.77;;
14789;SDS011;7486;51.010;10.366;2022-12-18T08:53:24;20.93;;;10.83;;
14789;SDS011;7486;51.010;10.366;2022-12-18T08:55:58;21.10;;;10.57;;
14789;SDS011;7486;51.010;10.366;2022-12-18T08:58:24;24.30;;;12.50;;
14789;SDS011;7486;51.010;10.366;2022-12-18T09:00:51;21.00;;;11.53;;
14789;SDS011;7486;51.010;10.366;2022-12-18T09:03:18;24.97;;;11.40;;
14789;SDS011;7486;51.010;10.366;2022-12-18T09:05:46;21.00;;;11.47;;
14789;SDS011;7486;51.010;10.366;2022-12-18T09:08:12;21.30;;;11.97;;
14789;SDS011;7486;51.010;10.366;2022-12-18T09:10:46;23.50;;;11.97;;
14789;SDS011;7486;51.010;10.366;2022-12-18T09:13:14;24.47;;;12.37;;
14789;SDS011;7486;51.010;10.366;2022-12-18T09:18:09;25.57;;;12.53;;
14789;SDS011;7486;51.010;10.366;2022-12-18T09:20:36;21.00;;;11.43;;
14789;SDS011;7486;51.010;10.366;2022-12-18T09:23:04;22.50;;;12.27;;
14789;SDS011;7486;51.010;10.366;2022-12-18T09:25:32;20.53;;;11.03;;
14789;SDS011;7486;51.010;10.366;2022-12-18T09:27:59;21.87;;;11.17;;
14789;SDS011;7486;51.010;10.366;2022-12-18T09:30:26;20.30;;;11.50;;
14789;SDS011;7486;51.010;10.366;2022-12-18T09:32:53;19.67;;;10.90;;
14789;SDS011;7486;51.010;10.366;2022-12-18T09:35:20;20.27;;;11.30;;
14789;SDS011;7486;51.010;10.366;2022-12-18T09:37:47;20.03;;;11.27;;
14789;SDS011;7486;51.010;10.366;2022-12-18T09:40:18;21.97;;;11.43;;
14789;SDS011;7486;51.010;10.366;2022-12-18T09:42:49;19.53;;;11.23;;
14789;SDS011;7486;51.010;10.366;2022-12-18T09:45:20;18.23;;;11.37;;
14789;SDS011;7486;51.010;10.366;2022-12-18T09:47:48;17.07;;;10.63;;
14789;SDS011;7486;51.010;10.366;2022-12-18T09:50:35;19.27;;;11.00;;
14789;SDS011;7486;51.010;10.366;2022-12-18T09:53:15;19.63;;;10.87;;
14789;SDS011;7486;51.010;10.366;2022-12-18T09:55:47;18.20;;;10.80;;
14789;SDS011;7486;51.010;10.366;2022-12-18T10:01:10;18.10;;;11.13;;
14789;SDS011;7486;51.010;10.366;2022-12-18T10:03:44;20.13;;;10.73;;
14789;SDS011;7486;51.010;10.366;2022-12-18T10:06:29;17.57;;;10.73;;
14789;SDS011;7486;51.010;10.366;2022-12-18T10:09:10;21.70;;;10.70;;
14789;SDS011;7486;51.010;10.366;2022-12-18T10:11:52;18.47;;;10.17;;
14789;SDS011;7486;51.010;10.366;2022-12-18T10:17:20;20.07;;;10.70;;
14789;SDS011;7486;51.010;10.366;2022-12-18T10:19:54;17.07;;;10.53;;
14789;SDS011;7486;51.010;10.366;2022-12-18T10:28:19;18.40;;;10.90;;
14789;SDS011;7486;51.010;10.366;2022-12-18T10:30:46;16.30;;;10.97;;
14789;SDS011;7486;51.010;10.366;2022-12-18T10:33:13;18.27;;;11.30;;
14789;SDS011;7486;51.010;10.366;2022-12-18T10:35:43;16.53;;;11.10;;
14789;SDS011;7486;51.010;10.366;2022-12-18T10:43:33;18.03;;;9.90;;
14789;SDS011;7486;51.010;10.366;2022-12-18T10:46:03;18.70;;;10.70;;
14789;SDS011;7486;51.010;10.366;2022-12-18T10:48:34;16.10;;;10.27;;
14789;SDS011;7486;51.010;10.366;2022-12-18T10:51:06;17.00;;;11.10;;
14789;SDS011;7486;51.010;10.366;2022-12-18T10:53:59;16.93;;;10.87;;
14789;SDS011;7486;51.010;10.366;2022-12-18T10:56:33;17.17;;;10.10;;
14789;SDS011;7486;51.010;10.366;2022-12-18T10:59:05;16.33;;;11.13;;
14789;SDS011;7486;51.010;10.366;2022-12-18T11:04:16;15.60;;;10.57;;
14789;SDS011;7486;51.010;10.366;2022-12-18T11:07:06;17.83;;;10.93;;
14789;SDS011;7486;51.010;10.366;2022-12-18T11:09:59;15.33;;;10.47;;
14789;SDS011;7486;51.010;10.366;2022-12-18T11:12:27;16.37;;;11.10;;
14789;SDS011;7486;51.010;10.366;2022-12-18T11:14:57;17.67;;;11.23;;
14789;SDS011;7486;51.010;10.366;2022-12-18T11:17:34;18.77;;;11.57;;
14789;SDS011;7486;51.010;10.366;2022-12-18T11:20:03;15.63;;;10.60;;
14789;SDS011;7486;51.010;10.366;2022-12-18T11:22:53;14.83;;;9.90;;
14789;SDS011;7486;51.010;10.366;2022-12-18T11:25:23;16.87;;;10.43;;
14789;SDS011;7486;51.010;10.366;2022-12-18T11:28:05;15.83;;;10.87;;
14789;SDS011;7486;51.010;10.366;2022-12-18T11:33:46;16.57;;;10.67;;
14789;SDS011;7486;51.010;10.366;2022-12-18T11:36:46;17.20;;;10.90;;
14789;SDS011;7486;51.010;10.366;2022-12-18T11:39:19;14.80;;;10.50;;
14789;SDS011;7486;51.010;10.366;2022-12-18T11:41:59;12.67;;;9.33;;
14789;SDS011;7486;51.010;10.366;2022-12-18T11:44:42;15.20;;;9.43;;
14789;SDS011;7486;51.010;10.366;2022-12-18T11:47:24;14.23;;;9.10;;
14789;SDS011;7486;51.010;10.366;2022-12-18T11:49:54;14.20;;;8.80;;
14789;SDS011;7486;51.010;10.366;2022-12-18T11:52:23;12.13;;;8.77;;
14789;SDS011;7486;51.010;10.366;2022-12-18T11:54:58;13.87;;;9.00;;
14789;SDS011;7486;51.010;10.366;2022-12-18T11:57:36;14.73;;;9.40;;
14789;SDS011;7486;51.010;10.366;2022-12-18T12:00:30;12.97;;;10.00;;
14789;SDS011;7486;51.010;10.366;2022-12-18T12:03:04;14.77;;;10.33;;
14789;SDS011;7486;51.010;10.366;2022-12-18T12:13:34;14.67;;;10.10;;
14789;SDS011;7486;51.010;10.366;2022-12-18T12:21:42;13.87;;;9.23;;
14789;SDS011;7486;51.010;10.366;2022-12-18T12:27:06;12.07;;;8.87;;
14789;SDS011;7486;51.010;10.366;2022-12-18T12:29:58;13.33;;;8.73;;
14789;SDS011;7486;51.010;10.366;2022-12-18T12:35:37;13.83;;;8.73;;
14789;SDS011;7486;51.010;10.366;2022-12-18T12:38:30;12.83;;;8.97;;
14789;SDS011;7486;51.010;10.366;2022-12-18T12:41:04;14.67;;;8.93;;
14789;SDS011;7486;51.010;10.366;2022-12-18T12:43:44;11.90;;;8.10;;
14789;SDS011;7486;51.010;10.366;2022-12-18T12:46:17;11.40;;;8.27;;
14789;SDS011;7486;51.010;10.366;2022-12-18T12:51:34;14.03;;;9.17;;
14789;SDS011;7486;51.010;10.366;2022-12-18T12:54:04;13.23;;;9.27;;
14789;SDS011;7486;51.010;10.366;2022-12-18T12:56:42;14.17;;;8.93;;
14789;SDS011;7486;51.010;10.366;2022-12-18T12:59:15;14.50;;;10.07;;
14789;SDS011;7486;51.010;10.366;2022-12-18T13:04:47;15.60;;;9.90;;
14789;SDS011;7486;51.010;10.366;2022-12-18T13:07:17;13.07;;;9.57;;
14789;SDS011;7486;51.010;10.366;2022-12-18T13:13:02;15.23;;;9.30;;
14789;SDS011;7486;51.010;10.366;2022-12-18T13:16:07;15.47;;;10.73;;
14789;SDS011;7486;51.010;10.366;2022-12-18T13:18:34;15.50;;;10.53;;
14789;SDS011;7486;51.010;10.366;2022-12-18T13:21:03;18.53;;;10.30;;
14789;SDS011;7486;51.010;10.366;2022-12-18T13:23:52;16.37;;;10.37;;
14789;SDS011;7486;51.010;10.366;2022-12-18T13:28:55;15.90;;;10.63;;
14789;SDS011;7486;51.010;10.366;2022-12-18T13:34:17;14.20;;;9.33;;
14789;SDS011;7486;51.010;10.366;2022-12-18T13:39:57;14.50;;;9.20;;
14789;SDS011;7486;51.010;10.366;2022-12-18T13:44:50;12.33;;;9.17;;
14789;SDS011;7486;51.010;10.366;2022-12-18T13:50:09;13.77;;;9.50;;
14789;SDS011;7486;51.010;10.366;2022-12-18T13:53:00;13.63;;;9.43;;
14789;SDS011;7486;51.010;10.366;2022-12-18T13:55:29;15.27;;;10.27;;
14789;SDS011;7486;51.010;10.366;2022-12-18T13:58:05;16.53;;;11.17;;
14789;SDS011;7486;51.010;10.366;2022-12-18T14:00:32;16.07;;;11.13;;
14789;SDS011;7486;51.010;10.366;2022-12-18T14:02:59;16.00;;;11.40;;
14789;SDS011;7486;51.010;10.366;2022-12-18T14:05:31;15.63;;;11.10;;
14789;SDS011;7486;51.010;10.366;2022-12-18T14:08:03;15.53;;;11.17;;
14789;SDS011;7486;51.010;10.366;2022-12-18T14:10:34;15.80;;;10.50;;
14789;SDS011;7486;51.010;10.366;2022-12-18T14:13:16;19.77;;;11.00;;
14789;SDS011;7486;51.010;10.366;2022-12-18T14:15:48;15.57;;;11.23;;
14789;SDS011;7486;51.010;10.366;2022-12-18T14:21:03;16.63;;;11.10;;
14789;SDS011;7486;51.010;10.366;2022-12-18T14:25:58;16.20;;;11.67;;
14789;SDS011;7486;51.010;10.366;2022-12-18T14:28:31;18.33;;;11.47;;
14789;SDS011;7486;51.010;10.366;2022-12-18T14:30:58;14.23;;;10.40;;
14789;SDS011;7486;51.010;10.366;2022-12-18T14:33:26;16.97;;;11.47;;
14789;SDS011;7486;51.010;10.366;2022-12-18T14:38:29;16.40;;;11.63;;
14789;SDS011;7486;51.010;10.366;2022-12-18T14:40:58;15.47;;;10.90;;
14789;SDS011;7486;51.010;10.366;2022-12-18T14:43:48;16.30;;;11.27;;
14789;SDS011;7486;51.010;10.366;2022-12-18T14:49:18;17.37;;;11.57;;
14789;SDS011;7486;51.010;10.366;2022-12-18T14:52:00;16.67;;;11.47;;
14789;SDS011;7486;51.010;10.366;2022-12-18T14:54:30;15.60;;;11.37;;
14789;SDS011;7486;51.010;10.366;2022-12-18T14:59:43;15.93;;;11.07;;
14789;SDS011;7486;51.010;10.366;2022-12-18T15:05:03;14.80;;;10.43;;
14789;SDS011;7486;51.010;10.366;2022-12-18T15:07:52;18.57;;;11.87;;
14789;SDS011;7486;51.010;10.366;2022-12-18T15:10:22;17.40;;;11.57;;
14789;SDS011;7486;51.010;10.366;2022-12-18T15:18:00;15.80;;;11.50;;
14789;SDS011;7486;51.010;10.366;2022-12-18T15:20:29;17.60;;;11.93;;
14789;SDS011;7486;51.010;10.366;2022-12-18T15:22:59;17.77;;;11.43;;
14789;SDS011;7486;51.010;10.366;2022-12-18T15:28:00;17.20;;;11.73;;
14789;SDS011;7486;51.010;10.366;2022-12-18T15:30:27;19.23;;;11.83;;
14789;SDS011;7486;51.010;10.366;2022-12-18T15:35:55;18.77;;;12.27;;
14789;SDS011;7486;51.010;10.366;2022-12-18T15:38:26;16.20;;;11.80;;
14789;SDS011;7486;51.010;10.366;2022-12-18T15:40:53;21.90;;;14.13;;
14789;SDS011;7486;51.010;10.366;2022-12-18T15:43:24;17.90;;;11.97;;
14789;SDS011;7486;51.010;10.366;2022-12-18T15:45:54;17.27;;;11.47;;
14789;SDS011;7486;51.010;10.366;2022-12-18T15:48:21;18.33;;;12.33;;
14789;SDS011;7486;51.010;10.366;2022-12-18T15:50:52;18.23;;;12.93;;
14789;SDS011;7486;51.010;10.366;2022-12-18T15:53:21;18.93;;;12.73;;
14789;SDS011;7486;51.010;10.366;2022-12-18T15:55:48;16.57;;;11.80;;
14789;SDS011;7486;51.010;10.366;2022-12-18T15:58:15;17.60;;;13.37;;
14789;SDS011;7486;51.010;10.366;2022-12-18T16:00:42;19.70;;;13.40;;
14789;SDS011;7486;51.010;10.366;2022-12-18T16:03:12;19.70;;;12.57;;
14789;SDS011;7486;51.010;10.366;2022-12-18T16:05:39;18.93;;;13.70;;
14789;SDS011;7486;51.010;10.366;2022-12-18T16:08:06;19.27;;;13.33;;
14789;SDS011;7486;51.010;10.366;2022-12-18T16:10:32;19.77;;;14.47;;
14789;SDS011;7486;51.010;10.366;2022-12-18T16:12:59;20.80;;;14.07;;
14789;SDS011;7486;51.010;10.366;2022-12-18T16:15:26;21.20;;;14.17;;
14789;SDS011;7486;51.010;10.366;2022-12-18T16:17:53;19.33;;;14.13;;
14789;SDS011;7486;51.010;10.366;2022-12-18T16:20:20;22.07;;;16.23;;
14789;SDS011;7486;51.010;10.366;2022-12-18T16:22:48;25.13;;;16.93;;
14789;SDS011;7486;51.010;10.366;2022-12-18T16:25:19;21.80;;;15.00;;
14789;SDS011;7486;51.010;10.366;2022-12-18T16:27:51;23.17;;;15.27;;
14789;SDS011;7486;51.010;10.366;2022-12-18T16:30:20;23.63;;;16.93;;
14789;SDS011;7486;51.010;10.366;2022-12-18T16:33:03;25.43;;;16.80;;
14789;SDS011;7486;51.010;10.366;2022-12-18T16:35:32;22.00;;;16.37;;
14789;SDS011;7486;51.010;10.366;2022-12-18T16:37:59;23.17;;;15.90;;
14789;SDS011;7486;51.010;10.366;2022-12-18T16:40:26;20.37;;;14.10;;
14789;SDS011;7486;51.010;10.366;2022-12-18T16:42:53;22.00;;;14.93;;
14789;SDS011;7486;51.010;10.366;2022-12-18T16:45:19;21.37;;;15.03;;
14789;SDS011;7486;51.010;10.366;2022-12-18T16:47:46;22.03;;;14.77;;
14789;SDS011;7486;51.010;10.366;2022-12-18T16:50:13;19.43;;;13.60;;
14789;SDS011;7486;51.010;10.366;2022-12-18T16:52:40;20.33;;;13.80;;
14789;SDS011;7486;51.010;10.366;2022-12-18T16:55:07;22.90;;;15.40;;
14789;SDS011;7486;51.010;10.366;2022-12-18T16:57:34;21.63;;;15.37;;
14789;SDS011;7486;51.010;10.366;2022-12-18T17:00:01;24.80;;;16.17;;
14789;SDS011;7486;51.010;10.366;2022-12-18T17:02:31;24.30;;;15.50;;
14789;SDS011;7486;51.010;10.366;2022-12-18T17:04:58;23.63;;;16.10;;